sensor_id;sensor_type;location;lat;lon;timestamp;temperature;humidity
16301;DHT22;8258;51.020;4.248;2024-03-07T00:02:12;5.70;99.90
16301;DHT22;8258;51.020;4.248;2024-03-07T00:04:39;5.70;99.90
16301;DHT22;8258;51.020;4.248;2024-03-07T00:07:06;5.70;99.90
16301;DHT22;8258;51.020;4.248;2024-03-07T00:09:34;5.70;99.90
16301;DHT22;8258;51.020;4.248;2024-03-07T00:12:01;5.60;99.90
16301;DHT22;8258;51.020;4.248;2024-03-07T00:14:28;5.60;99.90
16301;DHT22;8258;51.020;4.248;2024-03-07T00:16:56;5.60;99.90
16301;DHT22;8258;51.020;4.248;2024-03-07T00:19:24;5.60;99.90
16301;DHT22;8258;51.020;4.248;2024-03-07T00:21:52;5.60;99.90
16301;DHT22;8258;51.020;4.248;2024-03-07T00:24:19;5.50;99.90
16301;DHT22;8258;51.020;4.248;2024-03-07T00:26:46;5.50;99.90
16301;DHT22;8258;51.020;4.248;2024-03-07T00:29:15;5.50;99.90
16301;DHT22;8258;51.020;4.248;2024-03-07T00:31:43;5.50;99.90
16301;DHT22;8258;51.020;4.248;2024-03-07T00:34:12;5.50;99.90
16301;DHT22;8258;51.020;4.248;2024-03-07T00:36:54;5.50;99.90
16301;DHT22;8258;51.020;4.248;2024-03-07T00:52:23;5.40;99.90
16301;DHT22;8258;51.020;4.248;2024-03-07T00:55:14;5.40;99.90
16301;DHT22;8258;51.020;4.248;2024-03-07T01:10:44;5.10;99.90
16301;DHT22;8258;51.020;4.248;2024-03-07T01:26:12;4.90;99.90
16301;DHT22;8258;51.020;4.248;2024-03-07T01:28:44;4.90;99.90
16301;DHT22;8258;51.020;4.248;2024-03-07T01:31:18;4.90;99.90
16301;DHT22;8258;51.020;4.248;2024-03-07T01:36:21;4.90;99.90
16301;DHT22;8258;51.020;4.248;2024-03-07T01:38:50;4.90;99.90
16301;DHT22;8258;51.020;4.248;2024-03-07T01:41:20;4.90;99.90
16301;DHT22;8258;51.020;4.248;2024-03-07T01:43:51;4.90;99.90
16301;DHT22;8258;51.020;4.248;2024-03-07T01:46:20;4.80;99.90
16301;DHT22;8258;51.020;4.248;2024-03-07T01:49:00;4.80;99.90
16301;DHT22;8258;51.020;4.248;2024-03-07T01:51:43;4.70;99.90
16301;DHT22;8258;51.020;4.248;2024-03-07T01:54:11;4.70;99.90
16301;DHT22;8258;51.020;4.248;2024-03-07T01:56:51;4.70;99.90
16301;DHT22;8258;51.020;4.248;2024-03-07T02:43:27;4.50;99.90
16301;DHT22;8258;51.020;4.248;2024-03-07T02:45:56;4.50;99.90
16301;DHT22;8258;51.020;4.248;2024-03-07T02:48:23;4.40;99.90
16301;DHT22;8258;51.020;4.248;2024-03-07T02:50:50;4.30;99.90
16301;DHT22;8258;51.020;4.248;2024-03-07T02:53:18;4.30;99.90
16301;DHT22;8258;51.020;4.248;2024-03-07T02:55:45;4.20;99.90
16301;DHT22;8258;51.020;4.248;2024-03-07T02:58:12;4.20;99.90
16301;DHT22;8258;51.020;4.248;2024-03-07T03:00:41;4.20;99.90
16301;DHT22;8258;51.020;4.248;2024-03-07T03:03:08;4.20;99.90
16301;DHT22;8258;51.020;4.248;2024-03-07T03:05:35;4.20;99.90
16301;DHT22;8258;51.020;4.248;2024-03-07T03:08:03;4.20;99.90
16301;DHT22;8258;51.020;4.248;2024-03-07T03:10:32;4.10;99.90
16301;DHT22;8258;51.020;4.248;2024-03-07T03:12:59;4.10;99.90
16301;DHT22;8258;51.020;4.248;2024-03-07T03:15:27;4.10;99.90
16301;DHT22;8258;51.020;4.248;2024-03-07T03:17:56;4.00;99.90
16301;DHT22;8258;51.020;4.248;2024-03-07T03:20:25;4.00;99.90
16301;DHT22;8258;51.020;4.248;2024-03-07T03:22:57;3.90;99.90
16301;DHT22;8258;51.020;4.248;2024-03-07T03:25:24;4.00;99.90
16301;DHT22;8258;51.020;4.248;2024-03-07T03:27:51;4.00;99.90
16301;DHT22;8258;51.020;4.248;2024-03-07T03:30:19;4.00;99.90
16301;DHT22;8258;51.020;4.248;2024-03-07T03:32:49;4.00;99.90
16301;DHT22;8258;51.020;4.248;2024-03-07T03:35:18;4.00;99.90
16301;DHT22;8258;51.020;4.248;2024-03-07T03:37:45;4.00;99.90
16301;DHT22;8258;51.020;4.248;2024-03-07T03:40:12;4.00;99.90
16301;DHT22;8258;51.020;4.248;2024-03-07T03:42:40;3.90;99.90
16301;DHT22;8258;51.020;4.248;2024-03-07T03:45:09;3.90;99.90
16301;DHT22;8258;51.020;4.248;2024-03-07T03:47:40;3.90;99.90
16301;DHT22;8258;51.020;4.248;2024-03-07T03:50:09;3.90;99.90
16301;DHT22;8258;51.020;4.248;2024-03-07T03:52:38;3.90;99.90
16301;DHT22;8258;51.020;4.248;2024-03-07T03:55:05;4.00;99.90
16301;DHT22;8258;51.020;4.248;2024-03-07T03:57:35;3.90;99.90
16301;DHT22;8258;51.020;4.248;2024-03-07T04:00:03;3.90;99.90
16301;DHT22;8258;51.020;4.248;2024-03-07T04:02:38;3.90;99.90
16301;DHT22;8258;51.020;4.248;2024-03-07T04:05:06;4.00;99.90
16301;DHT22;8258;51.020;4.248;2024-03-07T04:07:34;4.00;99.90
16301;DHT22;8258;51.020;4.248;2024-03-07T04:10:04;4.00;99.90
16301;DHT22;8258;51.020;4.248;2024-03-07T04:12:33;4.00;99.90
16301;DHT22;8258;51.020;4.248;2024-03-07T04:15:01;4.00;99.90
16301;DHT22;8258;51.020;4.248;2024-03-07T04:17:29;4.00;99.90
16301;DHT22;8258;51.020;4.248;2024-03-07T04:19:57;4.00;99.90
16301;DHT22;8258;51.020;4.248;2024-03-07T04:22:24;4.00;99.90
16301;DHT22;8258;51.020;4.248;2024-03-07T04:24:52;3.90;99.90
16301;DHT22;8258;51.020;4.248;2024-03-07T04:27:22;3.90;99.90
16301;DHT22;8258;51.020;4.248;2024-03-07T04:29:49;3.90;99.90
16301;DHT22;8258;51.020;4.248;2024-03-07T04:32:16;3.90;99.90
16301;DHT22;8258;51.020;4.248;2024-03-07T04:34:44;3.90;99.90
16301;DHT22;8258;51.020;4.248;2024-03-07T04:37:11;4.00;99.90
16301;DHT22;8258;51.020;4.248;2024-03-07T04:39:38;4.00;99.90
16301;DHT22;8258;51.020;4.248;2024-03-07T04:42:06;4.00;99.90
16301;DHT22;8258;51.020;4.248;2024-03-07T04:44:36;3.90;99.90
16301;DHT22;8258;51.020;4.248;2024-03-07T04:47:05;3.90;99.90
16301;DHT22;8258;51.020;4.248;2024-03-07T04:49:33;3.90;99.90
16301;DHT22;8258;51.020;4.248;2024-03-07T04:52:02;3.90;99.90
16301;DHT22;8258;51.020;4.248;2024-03-07T04:54:30;3.80;99.90
16301;DHT22;8258;51.020;4.248;2024-03-07T04:56:57;3.80;99.90
16301;DHT22;8258;51.020;4.248;2024-03-07T04:59:24;3.80;99.90
16301;DHT22;8258;51.020;4.248;2024-03-07T05:01:53;3.90;99.90
16301;DHT22;8258;51.020;4.248;2024-03-07T05:04:20;3.90;99.90
16301;DHT22;8258;51.020;4.248;2024-03-07T05:06:50;3.80;99.90
16301;DHT22;8258;51.020;4.248;2024-03-07T05:09:17;3.80;99.90
16301;DHT22;8258;51.020;4.248;2024-03-07T05:11:51;3.80;99.90
16301;DHT22;8258;51.020;4.248;2024-03-07T05:14:19;3.70;99.90
16301;DHT22;8258;51.020;4.248;2024-03-07T05:37:29;3.70;99.90
16301;DHT22;8258;51.020;4.248;2024-03-07T05:39:57;3.70;99.90
16301;DHT22;8258;51.020;4.248;2024-03-07T05:42:25;3.70;99.90
16301;DHT22;8258;51.020;4.248;2024-03-07T05:44:52;3.70;99.90
16301;DHT22;8258;51.020;4.248;2024-03-07T05:47:20;3.60;99.90
16301;DHT22;8258;51.020;4.248;2024-03-07T05:49:47;3.70;99.90
16301;DHT22;8258;51.020;4.248;2024-03-07T06:05:13;3.90;99.90
16301;DHT22;8258;51.020;4.248;2024-03-07T06:17:56;4.20;99.90
16301;DHT22;8258;51.020;4.248;2024-03-07T06:33:54;4.20;99.90
16301;DHT22;8258;51.020;4.248;2024-03-07T06:44:57;4.30;99.90
16301;DHT22;8258;51.020;4.248;2024-03-07T06:47:24;4.40;99.90
16301;DHT22;8258;51.020;4.248;2024-03-07T06:49:51;4.40;99.90
16301;DHT22;8258;51.020;4.248;2024-03-07T06:52:19;4.40;99.90
16301;DHT22;8258;51.020;4.248;2024-03-07T06:54:47;4.40;99.90
16301;DHT22;8258;51.020;4.248;2024-03-07T06:57:17;4.50;99.90
16301;DHT22;8258;51.020;4.248;2024-03-07T06:59:45;4.60;99.90
16301;DHT22;8258;51.020;4.248;2024-03-07T07:02:14;4.50;99.90
16301;DHT22;8258;51.020;4.248;2024-03-07T07:04:41;4.40;99.90
16301;DHT22;8258;51.020;4.248;2024-03-07T07:07:08;4.50;99.90
16301;DHT22;8258;51.020;4.248;2024-03-07T07:09:37;4.50;99.90
16301;DHT22;8258;51.020;4.248;2024-03-07T07:12:04;4.50;99.90
16301;DHT22;8258;51.020;4.248;2024-03-07T07:14:31;4.60;99.90
16301;DHT22;8258;51.020;4.248;2024-03-07T07:17:01;4.70;99.90
16301;DHT22;8258;51.020;4.248;2024-03-07T07:19:29;4.70;99.90
16301;DHT22;8258;51.020;4.248;2024-03-07T07:21:56;4.60;99.90
16301;DHT22;8258;51.020;4.248;2024-03-07T07:24:23;4.70;99.90
16301;DHT22;8258;51.020;4.248;2024-03-07T07:26:51;4.70;99.90
16301;DHT22;8258;51.020;4.248;2024-03-07T07:29:18;4.80;99.90
16301;DHT22;8258;51.020;4.248;2024-03-07T07:31:45;4.80;99.90
16301;DHT22;8258;51.020;4.248;2024-03-07T07:34:12;4.70;99.90
16301;DHT22;8258;51.020;4.248;2024-03-07T07:55:45;5.20;99.90
16301;DHT22;8258;51.020;4.248;2024-03-07T07:58:14;5.20;99.90
16301;DHT22;8258;51.020;4.248;2024-03-07T08:00:42;5.30;99.90
16301;DHT22;8258;51.020;4.248;2024-03-07T08:03:10;5.30;99.90
16301;DHT22;8258;51.020;4.248;2024-03-07T08:05:39;5.50;99.90
16301;DHT22;8258;51.020;4.248;2024-03-07T08:08:07;5.40;99.90
16301;DHT22;8258;51.020;4.248;2024-03-07T08:10:38;5.40;99.90
16301;DHT22;8258;51.020;4.248;2024-03-07T08:13:08;5.60;99.90
16301;DHT22;8258;51.020;4.248;2024-03-07T08:15:36;5.70;99.90
16301;DHT22;8258;51.020;4.248;2024-03-07T08:18:04;5.70;99.90
16301;DHT22;8258;51.020;4.248;2024-03-07T08:20:34;5.60;99.90
16301;DHT22;8258;51.020;4.248;2024-03-07T08:23:01;5.70;99.90
16301;DHT22;8258;51.020;4.248;2024-03-07T08:25:29;5.80;99.90
16301;DHT22;8258;51.020;4.248;2024-03-07T08:27:57;6.00;99.90
16301;DHT22;8258;51.020;4.248;2024-03-07T08:30:26;6.10;99.90
16301;DHT22;8258;51.020;4.248;2024-03-07T08:32:55;6.20;99.90
16301;DHT22;8258;51.020;4.248;2024-03-07T08:35:24;6.20;99.90
16301;DHT22;8258;51.020;4.248;2024-03-07T08:37:54;6.30;99.90
16301;DHT22;8258;51.020;4.248;2024-03-07T08:40:24;6.40;99.90
16301;DHT22;8258;51.020;4.248;2024-03-07T08:42:52;6.40;99.90
16301;DHT22;8258;51.020;4.248;2024-03-07T09:04:49;6.30;99.90
16301;DHT22;8258;51.020;4.248;2024-03-07T09:07:16;6.40;99.90
16301;DHT22;8258;51.020;4.248;2024-03-07T09:09:43;6.70;99.90
16301;DHT22;8258;51.020;4.248;2024-03-07T09:12:11;7.00;99.90
16301;DHT22;8258;51.020;4.248;2024-03-07T09:14:39;7.30;99.90
16301;DHT22;8258;51.020;4.248;2024-03-07T09:17:07;7.90;99.90
16301;DHT22;8258;51.020;4.248;2024-03-07T09:19:34;8.40;99.90
16301;DHT22;8258;51.020;4.248;2024-03-07T09:22:03;9.10;99.90
16301;DHT22;8258;51.020;4.248;2024-03-07T09:24:32;10.30;99.90
16301;DHT22;8258;51.020;4.248;2024-03-07T09:27:00;11.10;99.90
16301;DHT22;8258;51.020;4.248;2024-03-07T09:29:28;11.10;99.90
16301;DHT22;8258;51.020;4.248;2024-03-07T09:31:55;10.90;99.90
16301;DHT22;8258;51.020;4.248;2024-03-07T09:34:24;10.40;99.90
16301;DHT22;8258;51.020;4.248;2024-03-07T09:36:51;10.90;99.90
16301;DHT22;8258;51.020;4.248;2024-03-07T09:39:21;11.80;99.90
16301;DHT22;8258;51.020;4.248;2024-03-07T09:41:49;12.50;99.90
16301;DHT22;8258;51.020;4.248;2024-03-07T09:44:18;12.40;99.90
16301;DHT22;8258;51.020;4.248;2024-03-07T09:46:50;12.00;99.90
16301;DHT22;8258;51.020;4.248;2024-03-07T09:49:19;11.40;99.90
16301;DHT22;8258;51.020;4.248;2024-03-07T09:51:47;11.70;99.90
16301;DHT22;8258;51.020;4.248;2024-03-07T09:54:18;11.70;99.90
16301;DHT22;8258;51.020;4.248;2024-03-07T09:56:47;12.20;99.90
16301;DHT22;8258;51.020;4.248;2024-03-07T09:59:16;13.50;99.90
16301;DHT22;8258;51.020;4.248;2024-03-07T10:01:47;14.60;99.90
16301;DHT22;8258;51.020;4.248;2024-03-07T10:04:22;15.20;99.90
16301;DHT22;8258;51.020;4.248;2024-03-07T10:06:55;15.60;99.90
16301;DHT22;8258;51.020;4.248;2024-03-07T10:09:22;16.10;99.90
16301;DHT22;8258;51.020;4.248;2024-03-07T10:11:57;15.70;99.90
16301;DHT22;8258;51.020;4.248;2024-03-07T10:14:24;15.90;99.90
16301;DHT22;8258;51.020;4.248;2024-03-07T10:16:53;16.30;99.90
16301;DHT22;8258;51.020;4.248;2024-03-07T10:19:22;16.40;99.90
16301;DHT22;8258;51.020;4.248;2024-03-07T10:21:49;16.80;99.90
16301;DHT22;8258;51.020;4.248;2024-03-07T10:24:17;17.00;99.90
16301;DHT22;8258;51.020;4.248;2024-03-07T10:26:50;16.20;99.90
16301;DHT22;8258;51.020;4.248;2024-03-07T10:29:19;16.60;99.90
16301;DHT22;8258;51.020;4.248;2024-03-07T10:31:46;16.00;99.90
16301;DHT22;8258;51.020;4.248;2024-03-07T10:34:14;15.20;99.90
16301;DHT22;8258;51.020;4.248;2024-03-07T10:36:43;15.50;99.90
16301;DHT22;8258;51.020;4.248;2024-03-07T10:39:11;15.50;99.90
16301;DHT22;8258;51.020;4.248;2024-03-07T10:41:44;15.60;99.90
16301;DHT22;8258;51.020;4.248;2024-03-07T10:44:20;16.30;99.90
16301;DHT22;8258;51.020;4.248;2024-03-07T10:46:52;17.00;99.90
16301;DHT22;8258;51.020;4.248;2024-03-07T10:49:20;16.90;99.90
16301;DHT22;8258;51.020;4.248;2024-03-07T10:51:58;16.80;99.90
16301;DHT22;8258;51.020;4.248;2024-03-07T10:54:36;17.10;99.90
16301;DHT22;8258;51.020;4.248;2024-03-07T10:57:16;16.40;99.90
16301;DHT22;8258;51.020;4.248;2024-03-07T10:59:52;16.80;99.90
16301;DHT22;8258;51.020;4.248;2024-03-07T11:02:29;17.80;99.90
16301;DHT22;8258;51.020;4.248;2024-03-07T11:05:00;17.60;99.90
16301;DHT22;8258;51.020;4.248;2024-03-07T11:07:28;17.80;99.90
16301;DHT22;8258;51.020;4.248;2024-03-07T11:09:56;17.00;99.90
16301;DHT22;8258;51.020;4.248;2024-03-07T11:12:25;17.10;99.90
16301;DHT22;8258;51.020;4.248;2024-03-07T11:14:56;17.70;99.90
16301;DHT22;8258;51.020;4.248;2024-03-07T11:17:24;17.90;99.90
16301;DHT22;8258;51.020;4.248;2024-03-07T11:19:52;18.20;99.00
16301;DHT22;8258;51.020;4.248;2024-03-07T11:22:29;17.20;98.90
16301;DHT22;8258;51.020;4.248;2024-03-07T11:25:03;16.60;99.90
16301;DHT22;8258;51.020;4.248;2024-03-07T11:27:36;16.40;99.90
16301;DHT22;8258;51.020;4.248;2024-03-07T11:35:21;17.30;99.90
16301;DHT22;8258;51.020;4.248;2024-03-07T11:40:47;15.10;99.90
16301;DHT22;8258;51.020;4.248;2024-03-07T11:53:43;18.00;96.70
16301;DHT22;8258;51.020;4.248;2024-03-07T11:56:14;17.40;97.10
16301;DHT22;8258;51.020;4.248;2024-03-07T11:58:46;16.50;99.00
16301;DHT22;8258;51.020;4.248;2024-03-07T12:01:22;16.20;99.90
16301;DHT22;8258;51.020;4.248;2024-03-07T12:16:44;18.70;95.50
16301;DHT22;8258;51.020;4.248;2024-03-07T12:19:12;19.40;91.30
16301;DHT22;8258;51.020;4.248;2024-03-07T12:21:43;18.20;90.80
16301;DHT22;8258;51.020;4.248;2024-03-07T12:24:14;16.70;94.30
16301;DHT22;8258;51.020;4.248;2024-03-07T12:26:42;15.50;98.10
16301;DHT22;8258;51.020;4.248;2024-03-07T12:29:10;15.20;99.30
16301;DHT22;8258;51.020;4.248;2024-03-07T12:31:38;15.40;98.00
16301;DHT22;8258;51.020;4.248;2024-03-07T12:34:07;15.90;97.70
16301;DHT22;8258;51.020;4.248;2024-03-07T12:36:35;16.30;97.00
16301;DHT22;8258;51.020;4.248;2024-03-07T12:39:22;17.50;94.40
16301;DHT22;8258;51.020;4.248;2024-03-07T12:41:58;18.20;94.30
16301;DHT22;8258;51.020;4.248;2024-03-07T12:44:26;19.30;91.00
16301;DHT22;8258;51.020;4.248;2024-03-07T12:46:54;19.50;85.40
16301;DHT22;8258;51.020;4.248;2024-03-07T12:49:23;18.80;83.50
16301;DHT22;8258;51.020;4.248;2024-03-07T12:51:53;17.80;84.00
16301;DHT22;8258;51.020;4.248;2024-03-07T12:54:21;16.60;93.00
16301;DHT22;8258;51.020;4.248;2024-03-07T12:56:48;15.10;96.60
16301;DHT22;8258;51.020;4.248;2024-03-07T12:59:16;14.60;99.90
16301;DHT22;8258;51.020;4.248;2024-03-07T13:01:45;15.90;99.90
16301;DHT22;8258;51.020;4.248;2024-03-07T13:04:13;17.10;94.10
16301;DHT22;8258;51.020;4.248;2024-03-07T13:06:43;18.00;94.40
16301;DHT22;8258;51.020;4.248;2024-03-07T13:09:12;19.00;84.80
16301;DHT22;8258;51.020;4.248;2024-03-07T13:11:39;19.60;81.90
16301;DHT22;8258;51.020;4.248;2024-03-07T13:14:13;18.00;87.50
16301;DHT22;8258;51.020;4.248;2024-03-07T13:16:40;19.00;84.10
16301;DHT22;8258;51.020;4.248;2024-03-07T13:19:08;18.90;82.60
16301;DHT22;8258;51.020;4.248;2024-03-07T13:21:37;18.80;80.10
16301;DHT22;8258;51.020;4.248;2024-03-07T13:24:07;17.90;79.70
16301;DHT22;8258;51.020;4.248;2024-03-07T13:26:35;18.00;88.80
16301;DHT22;8258;51.020;4.248;2024-03-07T13:29:02;18.70;80.00
16301;DHT22;8258;51.020;4.248;2024-03-07T13:31:30;19.20;81.40
16301;DHT22;8258;51.020;4.248;2024-03-07T13:33:57;19.50;72.90
16301;DHT22;8258;51.020;4.248;2024-03-07T13:36:27;19.30;72.60
16301;DHT22;8258;51.020;4.248;2024-03-07T13:38:54;19.30;71.40
16301;DHT22;8258;51.020;4.248;2024-03-07T13:41:25;19.10;68.90
16301;DHT22;8258;51.020;4.248;2024-03-07T13:43:54;19.20;70.40
16301;DHT22;8258;51.020;4.248;2024-03-07T13:56:51;19.50;58.40
16301;DHT22;8258;51.020;4.248;2024-03-07T13:59:49;17.40;75.20
16301;DHT22;8258;51.020;4.248;2024-03-07T14:02:43;17.10;75.50
16301;DHT22;8258;51.020;4.248;2024-03-07T14:14:00;17.80;69.20
16301;DHT22;8258;51.020;4.248;2024-03-07T14:22:04;19.00;59.70
16301;DHT22;8258;51.020;4.248;2024-03-07T14:25:19;18.70;58.90
16301;DHT22;8258;51.020;4.248;2024-03-07T14:33:11;18.20;58.50
16301;DHT22;8258;51.020;4.248;2024-03-07T14:36:04;17.10;61.20
16301;DHT22;8258;51.020;4.248;2024-03-07T14:38:48;17.70;60.00
16301;DHT22;8258;51.020;4.248;2024-03-07T14:41:16;18.40;61.00
16301;DHT22;8258;51.020;4.248;2024-03-07T14:43:45;18.50;62.20
16301;DHT22;8258;51.020;4.248;2024-03-07T14:46:15;19.20;63.00
16301;DHT22;8258;51.020;4.248;2024-03-07T14:48:44;18.90;58.10
16301;DHT22;8258;51.020;4.248;2024-03-07T14:51:12;18.90;62.10
16301;DHT22;8258;51.020;4.248;2024-03-07T14:53:40;18.80;59.80
16301;DHT22;8258;51.020;4.248;2024-03-07T14:56:08;18.70;57.50
16301;DHT22;8258;51.020;4.248;2024-03-07T14:58:37;19.20;56.80
16301;DHT22;8258;51.020;4.248;2024-03-07T15:01:05;20.00;55.60
16301;DHT22;8258;51.020;4.248;2024-03-07T15:03:33;19.80;50.20
16301;DHT22;8258;51.020;4.248;2024-03-07T15:06:02;19.10;54.60
16301;DHT22;8258;51.020;4.248;2024-03-07T15:08:29;18.50;53.20
16301;DHT22;8258;51.020;4.248;2024-03-07T15:11:16;18.00;55.40
16301;DHT22;8258;51.020;4.248;2024-03-07T15:13:46;17.00;58.00
16301;DHT22;8258;51.020;4.248;2024-03-07T15:16:16;16.80;59.60
16301;DHT22;8258;51.020;4.248;2024-03-07T15:18:43;17.60;57.90
16301;DHT22;8258;51.020;4.248;2024-03-07T15:21:12;17.70;57.00
16301;DHT22;8258;51.020;4.248;2024-03-07T15:23:41;17.10;56.40
16301;DHT22;8258;51.020;4.248;2024-03-07T15:28:50;18.40;57.00
16301;DHT22;8258;51.020;4.248;2024-03-07T15:31:17;18.80;51.30
16301;DHT22;8258;51.020;4.248;2024-03-07T15:33:45;18.90;49.30
16301;DHT22;8258;51.020;4.248;2024-03-07T15:36:14;18.00;51.00
16301;DHT22;8258;51.020;4.248;2024-03-07T15:38:41;17.80;51.80
16301;DHT22;8258;51.020;4.248;2024-03-07T15:41:08;18.00;53.20
16301;DHT22;8258;51.020;4.248;2024-03-07T15:43:37;18.50;52.10
16301;DHT22;8258;51.020;4.248;2024-03-07T15:46:07;18.30;49.40
16301;DHT22;8258;51.020;4.248;2024-03-07T15:48:36;16.70;53.10
16301;DHT22;8258;51.020;4.248;2024-03-07T15:51:04;16.60;56.80
16301;DHT22;8258;51.020;4.248;2024-03-07T15:53:34;17.00;56.70
16301;DHT22;8258;51.020;4.248;2024-03-07T15:56:02;17.50;58.00
16301;DHT22;8258;51.020;4.248;2024-03-07T15:58:29;17.80;54.40
16301;DHT22;8258;51.020;4.248;2024-03-07T16:00:56;17.70;56.00
16301;DHT22;8258;51.020;4.248;2024-03-07T16:03:23;16.90;54.50
16301;DHT22;8258;51.020;4.248;2024-03-07T16:05:50;16.00;58.10
16301;DHT22;8258;51.020;4.248;2024-03-07T16:08:19;15.70;60.80
16301;DHT22;8258;51.020;4.248;2024-03-07T16:10:48;15.10;62.50
16301;DHT22;8258;51.020;4.248;2024-03-07T16:13:18;14.60;68.30
16301;DHT22;8258;51.020;4.248;2024-03-07T16:15:45;14.20;75.00
16301;DHT22;8258;51.020;4.248;2024-03-07T16:18:13;14.00;72.30
16301;DHT22;8258;51.020;4.248;2024-03-07T16:20:41;13.30;80.40
16301;DHT22;8258;51.020;4.248;2024-03-07T16:23:12;12.90;89.00
16301;DHT22;8258;51.020;4.248;2024-03-07T16:25:41;12.90;91.70
16301;DHT22;8258;51.020;4.248;2024-03-07T16:28:09;12.60;92.00
16301;DHT22;8258;51.020;4.248;2024-03-07T16:30:38;12.40;93.70
16301;DHT22;8258;51.020;4.248;2024-03-07T16:33:09;12.30;94.50
16301;DHT22;8258;51.020;4.248;2024-03-07T16:35:36;12.40;95.30
16301;DHT22;8258;51.020;4.248;2024-03-07T16:38:04;12.40;96.70
16301;DHT22;8258;51.020;4.248;2024-03-07T16:40:41;12.50;97.10
16301;DHT22;8258;51.020;4.248;2024-03-07T16:43:12;12.90;95.70
16301;DHT22;8258;51.020;4.248;2024-03-07T16:45:55;12.70;95.40
16301;DHT22;8258;51.020;4.248;2024-03-07T16:48:28;12.30;96.40
16301;DHT22;8258;51.020;4.248;2024-03-07T16:50:58;12.10;98.30
16301;DHT22;8258;51.020;4.248;2024-03-07T16:53:27;12.20;99.00
16301;DHT22;8258;51.020;4.248;2024-03-07T16:56:06;12.20;99.60
16301;DHT22;8258;51.020;4.248;2024-03-07T16:58:43;12.10;99.20
16301;DHT22;8258;51.020;4.248;2024-03-07T17:01:10;12.10;99.90
16301;DHT22;8258;51.020;4.248;2024-03-07T17:03:40;11.80;99.90
16301;DHT22;8258;51.020;4.248;2024-03-07T17:06:07;11.70;99.90
16301;DHT22;8258;51.020;4.248;2024-03-07T17:08:35;11.50;99.90
16301;DHT22;8258;51.020;4.248;2024-03-07T17:11:03;11.40;99.90
16301;DHT22;8258;51.020;4.248;2024-03-07T17:13:32;11.70;99.90
16301;DHT22;8258;51.020;4.248;2024-03-07T17:16:03;11.80;99.90
16301;DHT22;8258;51.020;4.248;2024-03-07T17:18:31;11.60;99.90
16301;DHT22;8258;51.020;4.248;2024-03-07T17:20:59;11.30;99.90
16301;DHT22;8258;51.020;4.248;2024-03-07T17:23:28;10.90;99.90
16301;DHT22;8258;51.020;4.248;2024-03-07T17:25:55;10.80;99.90
16301;DHT22;8258;51.020;4.248;2024-03-07T17:28:22;10.60;99.90
16301;DHT22;8258;51.020;4.248;2024-03-07T17:30:51;10.50;99.90
16301;DHT22;8258;51.020;4.248;2024-03-07T17:33:22;10.40;99.90
16301;DHT22;8258;51.020;4.248;2024-03-07T17:35:51;10.30;99.90
16301;DHT22;8258;51.020;4.248;2024-03-07T17:38:18;10.20;99.90
16301;DHT22;8258;51.020;4.248;2024-03-07T17:40:46;10.10;99.90
16301;DHT22;8258;51.020;4.248;2024-03-07T17:43:13;9.90;99.90
16301;DHT22;8258;51.020;4.248;2024-03-07T17:45:40;9.80;99.90
16301;DHT22;8258;51.020;4.248;2024-03-07T17:48:08;9.80;99.90
16301;DHT22;8258;51.020;4.248;2024-03-07T17:50:37;9.60;99.90
16301;DHT22;8258;51.020;4.248;2024-03-07T17:53:06;9.50;99.90
16301;DHT22;8258;51.020;4.248;2024-03-07T17:55:40;9.40;99.90
16301;DHT22;8258;51.020;4.248;2024-03-07T17:58:09;9.40;99.90
16301;DHT22;8258;51.020;4.248;2024-03-07T18:00:41;9.40;99.90
16301;DHT22;8258;51.020;4.248;2024-03-07T18:03:14;9.30;99.90
16301;DHT22;8258;51.020;4.248;2024-03-07T18:05:45;9.30;99.90
16301;DHT22;8258;51.020;4.248;2024-03-07T18:08:24;9.20;99.90
16301;DHT22;8258;51.020;4.248;2024-03-07T18:26:34;8.90;99.90
16301;DHT22;8258;51.020;4.248;2024-03-07T18:57:32;8.20;99.90
16301;DHT22;8258;51.020;4.248;2024-03-07T19:00:02;8.10;99.90
16301;DHT22;8258;51.020;4.248;2024-03-07T19:02:30;8.10;99.90
16301;DHT22;8258;51.020;4.248;2024-03-07T19:04:57;8.10;99.90
16301;DHT22;8258;51.020;4.248;2024-03-07T19:07:24;8.10;99.90
16301;DHT22;8258;51.020;4.248;2024-03-07T19:09:51;8.10;99.90
16301;DHT22;8258;51.020;4.248;2024-03-07T19:12:19;8.00;99.90
16301;DHT22;8258;51.020;4.248;2024-03-07T19:14:48;7.90;99.90
16301;DHT22;8258;51.020;4.248;2024-03-07T19:17:19;7.90;99.90
16301;DHT22;8258;51.020;4.248;2024-03-07T19:27:46;7.70;99.90
16301;DHT22;8258;51.020;4.248;2024-03-07T19:30:22;7.70;99.90
16301;DHT22;8258;51.020;4.248;2024-03-07T20:19:32;7.00;99.90
16301;DHT22;8258;51.020;4.248;2024-03-07T20:21:59;6.90;99.90
16301;DHT22;8258;51.020;4.248;2024-03-07T20:24:26;6.90;99.90
16301;DHT22;8258;51.020;4.248;2024-03-07T20:26:53;6.90;99.90
16301;DHT22;8258;51.020;4.248;2024-03-07T20:29:21;6.90;99.90
16301;DHT22;8258;51.020;4.248;2024-03-07T20:31:48;6.80;99.90
16301;DHT22;8258;51.020;4.248;2024-03-07T20:34:15;6.70;99.90
16301;DHT22;8258;51.020;4.248;2024-03-07T20:36:47;6.70;99.90
16301;DHT22;8258;51.020;4.248;2024-03-07T20:39:15;6.70;99.90
16301;DHT22;8258;51.020;4.248;2024-03-07T20:41:48;6.60;99.90
16301;DHT22;8258;51.020;4.248;2024-03-07T20:44:16;6.60;99.90
16301;DHT22;8258;51.020;4.248;2024-03-07T20:46:43;6.60;99.90
16301;DHT22;8258;51.020;4.248;2024-03-07T20:54:29;6.50;99.90
16301;DHT22;8258;51.020;4.248;2024-03-07T21:28:56;6.10;99.90
16301;DHT22;8258;51.020;4.248;2024-03-07T21:31:23;6.10;99.90
16301;DHT22;8258;51.020;4.248;2024-03-07T21:33:52;6.10;99.90
16301;DHT22;8258;51.020;4.248;2024-03-07T21:36:19;6.10;99.90
16301;DHT22;8258;51.020;4.248;2024-03-07T21:38:46;6.10;99.90
16301;DHT22;8258;51.020;4.248;2024-03-07T21:41:13;6.00;99.90
16301;DHT22;8258;51.020;4.248;2024-03-07T21:43:41;6.00;99.90
16301;DHT22;8258;51.020;4.248;2024-03-07T21:46:10;5.90;99.90
16301;DHT22;8258;51.020;4.248;2024-03-07T21:48:39;5.90;99.90
16301;DHT22;8258;51.020;4.248;2024-03-07T21:51:08;5.90;99.90
16301;DHT22;8258;51.020;4.248;2024-03-07T21:53:36;5.80;99.90
16301;DHT22;8258;51.020;4.248;2024-03-07T21:56:05;5.80;99.90
16301;DHT22;8258;51.020;4.248;2024-03-07T21:58:35;5.70;99.90
16301;DHT22;8258;51.020;4.248;2024-03-07T22:32:35;5.40;99.90
16301;DHT22;8258;51.020;4.248;2024-03-07T22:35:07;5.30;99.90
16301;DHT22;8258;51.020;4.248;2024-03-07T22:37:41;5.30;99.90
16301;DHT22;8258;51.020;4.248;2024-03-07T22:40:10;5.20;99.90
16301;DHT22;8258;51.020;4.248;2024-03-07T22:42:37;5.10;99.90
16301;DHT22;8258;51.020;4.248;2024-03-07T22:45:06;5.10;99.90
16301;DHT22;8258;51.020;4.248;2024-03-07T22:47:37;5.10;99.90
16301;DHT22;8258;51.020;4.248;2024-03-07T22:50:06;5.10;99.90
16301;DHT22;8258;51.020;4.248;2024-03-07T22:52:33;5.10;99.90
16301;DHT22;8258;51.020;4.248;2024-03-07T22:55:01;5.00;99.90
16301;DHT22;8258;51.020;4.248;2024-03-07T22:57:31;5.10;99.90
16301;DHT22;8258;51.020;4.248;2024-03-07T22:59:59;5.00;99.90
16301;DHT22;8258;51.020;4.248;2024-03-07T23:02:26;5.00;99.90
16301;DHT22;8258;51.020;4.248;2024-03-07T23:04:54;5.00;99.90
16301;DHT22;8258;51.020;4.248;2024-03-07T23:07:24;4.90;99.90
16301;DHT22;8258;51.020;4.248;2024-03-07T23:09:51;4.90;99.90
16301;DHT22;8258;51.020;4.248;2024-03-07T23:12:18;4.90;99.90